메인 페이지
METAR-TAF:

METAR-TAF

공항 :

루안다 콰트루 드 페베레이루 공항

루안다, 앙골라

위도: 08-51S, 경도: 013-14E, 고도: 74m

현재 날씨관측

예보는 1 시간 14분 전, 12:00시(UTC)에 발표되었습니다.
6kt서남서풍과 북서풍을 오가는
온도 24°C
습도 74%
기압 1016 hPa
시정: 9000m

METAR: FNLU 241200Z AUTO 28006KT 240V310 9000 ////// 24/19 Q1016

시각: 14:14 (13:14 UTC)

예보

예보는 2 시간 14분 전, 11:00시(UTC)에 발표되었습니다.
예보 대상 시간: 24일 12시부터 25일 18시까지 (UTC)
서남서10kt
시정: 9000m
고도 2000ft 상공 구름 조금
고도 3000ft 상공 구름 보통
전환 중
24일 22시부터 24일 24시까지 (UTC)
5kt

TAF: FNLU 241100Z 2412/2518 25010KT 9000 FEW020 SCT030 BECMG 2422/2424 18005KT

4,000개 이상의 공항 관측 자료 및 예보 (METAR 및 TAF 보고).

지도상에서 검색 가능한 기상관측소가 노란 점과 빨간 점으로 표시되어 있습니다.

기상관측소 명을 보려면 표시 위로 마우스를 이동하세요.

날씨 관측과 예보를 보려면 클릭하세요.

지도 변경 : 확대하려면 엑스 표시가 있는 녹색 버튼, 축소하려면 빼기 표시가 있는 녹색 버튼, 다음 페이지의 지도를 보려면 녹색 화살표를 클릭하세요.


METAR-TAF: